Time;durP1;ratioP1;P1;durP2;ratioP2;P2;SDS_P1;SDS_P2;PMS_P1;PMS_P2;Temp;Humidity;BMP_temperature;BMP_pressure;BME280_temperature;BME280_humidity;BME280_pressure;Samples;Min_cycle;Max_cycle;Signal;HPM_P1;HPM_P2
2023/02/16 00:00:30;;;;;;;10.03;8.47;;;;;;;2.97;93.48;101230.38;4972134;28;20224;-77
2023/02/16 00:02:55;;;;;;;14.07;8.40;;;;;;;3.01;93.89;101224.50;4972019;28;20212;-76
2023/02/16 00:05:27;;;;;;;9.67;8.40;;;;;;;3.18;93.35;101233.44;4971984;28;20213;-75
2023/02/16 00:07:53;;;;;;;8.97;8.03;;;;;;;3.35;92.13;101233.50;4971913;28;20264;-73
2023/02/16 00:10:19;;;;;;;3.67;3.37;;;;;;;3.44;91.71;101234.72;4971922;28;20177;-79
2023/02/16 00:15:29;;;;;;;8.60;5.70;;;;;;;3.62;90.04;101239.91;4971718;28;20236;-75
2023/02/16 00:17:56;;;;;;;7.97;7.17;;;;;;;3.58;90.16;101241.44;4971462;28;20182;-79
2023/02/16 00:20:22;;;;;;;24.90;6.33;;;;;;;3.52;89.92;101245.94;4971478;28;20189;-79
2023/02/16 00:22:47;;;;;;;4.63;3.77;;;;;;;3.46;89.74;101254.19;4971764;28;20181;-74
2023/02/16 00:25:12;;;;;;;8.63;4.87;;;;;;;3.51;89.89;101240.78;4971445;28;20586;-76
2023/02/16 00:27:38;;;;;;;9.57;7.47;;;;;;;3.43;89.68;101242.00;4971645;28;20205;-77
2023/02/16 00:30:14;;;;;;;6.67;6.07;;;;;;;3.38;89.89;101250.03;4971741;28;20611;-77
2023/02/16 00:32:40;;;;;;;9.27;6.40;;;;;;;3.20;90.39;101234.88;4971569;28;20212;-80
2023/02/16 00:35:13;;;;;;;6.27;5.77;;;;;;;3.28;90.65;101239.84;4971320;28;20245;-76
2023/02/16 00:37:39;;;;;;;2.20;2.10;;;;;;;3.21;91.01;101231.09;4971492;28;20181;-75
2023/02/16 00:40:05;;;;;;;1.27;1.27;;;;;;;3.15;91.05;101242.84;4971765;28;20531;-73
2023/02/16 00:42:32;;;;;;;3.37;3.07;;;;;;;2.96;91.23;101234.16;4971575;28;20182;-76
2023/02/16 00:44:59;;;;;;;6.00;5.37;;;;;;;2.91;92.18;101223.28;4971376;28;20178;-75
2023/02/16 00:47:40;;;;;;;2.77;1.40;;;;;;;2.93;92.78;101220.31;4971516;28;20189;-75
2023/02/16 00:50:15;;;;;;;1.63;1.60;;;;;;;2.89;93.45;101222.69;4971415;28;20189;-77
2023/02/16 00:52:41;;;;;;;4.10;2.07;;;;;;;2.90;93.62;101240.53;4971553;28;20539;-79
2023/02/16 00:55:19;;;;;;;6.40;4.07;;;;;;;2.92;93.87;101230.31;4969841;28;20296;-78
2023/02/16 00:57:49;;;;;;;10.70;8.40;;;;;;;2.84;93.81;101219.06;4971358;28;20174;-75
2023/02/16 01:00:27;;;;;;;12.53;9.30;;;;;;;2.78;94.85;101215.47;4971496;28;20575;-79
2023/02/16 01:02:56;;;;;;;12.47;9.37;;;;;;;2.76;95.29;101212.19;4971371;28;20260;-74
2023/02/16 01:05:22;;;;;;;13.47;12.07;;;;;;;2.81;95.35;101212.28;4971422;28;20174;-78
2023/02/16 01:13:16;;;;;;;10.10;9.07;;;;;;;3.29;94.51;101216.38;4971270;28;20671;-78
2023/02/16 01:15:42;;;;;;;18.30;12.23;;;;;;;3.40;94.11;101207.38;4970973;28;20333;-78
2023/02/16 01:18:09;;;;;;;12.60;8.17;;;;;;;3.44;93.22;101199.59;4971393;28;20169;-76
2023/02/16 01:20:35;;;;;;;14.67;9.97;;;;;;;3.41;93.05;101187.41;4971250;28;20189;-80
2023/02/16 01:23:01;;;;;;;11.13;9.67;;;;;;;3.46;93.08;101182.09;4971240;28;20174;-76
2023/02/16 01:25:26;;;;;;;17.27;13.07;;;;;;;3.62;93.13;101177.75;4970911;28;20213;-74
2023/02/16 01:27:51;;;;;;;10.33;8.53;;;;;;;3.77;92.78;101166.38;4971288;28;20186;-72
2023/02/16 01:30:20;;;;;;;15.97;12.60;;;;;;;3.86;91.98;101162.97;4972710;28;20268;-78
2023/02/16 01:32:50;;;;;;;16.53;11.40;;;;;;;3.94;91.55;101160.91;4974764;28;20178;-78
2023/02/16 01:35:19;;;;;;;9.10;7.17;;;;;;;3.91;91.20;101151.44;4974391;28;20210;-74
2023/02/16 01:37:45;;;;;;;15.47;8.37;;;;;;;3.97;91.48;101163.13;4974578;28;20547;-79
2023/02/16 01:40:34;;;;;;;18.03;14.53;;;;;;;4.10;91.11;101158.16;4974528;28;20188;-76
2023/02/16 01:43:08;;;;;;;17.23;15.53;;;;;;;4.22;90.68;101154.53;4974634;28;20197;-76
2023/02/16 01:45:38;;;;;;;13.53;12.33;;;;;;;4.28;90.28;101159.72;4974365;28;20180;-75
2023/02/16 01:48:06;;;;;;;25.33;14.90;;;;;;;4.30;89.94;101167.59;4974533;28;20177;-78
2023/02/16 01:50:53;;;;;;;4.63;4.23;;;;;;;4.33;90.00;101161.69;4974398;28;20270;-78
2023/02/16 01:53:41;;;;;;;14.07;8.67;;;;;;;4.28;90.02;101164.31;4974424;28;20253;-76
2023/02/16 01:56:23;;;;;;;9.10;8.40;;;;;;;4.23;89.95;101162.38;4974691;28;20186;-75
2023/02/16 01:58:54;;;;;;;19.10;10.93;;;;;;;4.23;90.18;101164.28;4974194;28;20285;-75
2023/02/16 02:01:37;;;;;;;14.67;10.80;;;;;;;4.13;90.62;101168.47;4974297;28;20640;-74
2023/02/16 02:07:03;;;;;;;14.70;10.30;;;;;;;4.08;90.93;101152.19;4973962;28;20316;-78
2023/02/16 02:09:46;;;;;;;16.73;14.43;;;;;;;4.18;91.03;101155.00;4974075;28;20174;-78
2023/02/16 02:12:27;;;;;;;17.07;13.03;;;;;;;4.18;91.15;101151.50;4974149;28;20233;-74
2023/02/16 02:14:53;;;;;;;14.17;12.50;;;;;;;4.20;90.89;101151.25;4973759;28;20206;-77
2023/02/16 02:17:20;;;;;;;18.10;9.83;;;;;;;4.26;91.14;101144.84;4973845;28;20232;-75
2023/02/16 02:20:22;;;;;;;16.50;12.47;;;;;;;4.31;91.06;101147.59;4973890;28;20178;-76
2023/02/16 02:23:32;;;;;;;20.50;10.70;;;;;;;4.27;90.80;101147.28;4973796;28;20540;-78
2023/02/16 02:26:10;;;;;;;23.60;16.07;;;;;;;4.32;90.36;101133.00;4972569;28;20190;-76
2023/02/16 02:28:41;;;;;;;24.23;8.80;;;;;;;4.31;90.39;101132.19;4973808;28;20656;-78
2023/02/16 02:31:16;;;;;;;18.73;13.70;;;;;;;4.32;90.62;101122.16;4973909;28;20186;-81
2023/02/16 02:34:09;;;;;;;19.27;16.50;;;;;;;4.33;90.39;101121.91;4973811;28;20272;-76
2023/02/16 02:36:36;;;;;;;15.67;11.90;;;;;;;4.35;90.47;101124.41;4972280;28;20280;-80
2023/02/16 02:39:19;;;;;;;18.20;12.43;;;;;;;4.35;90.33;101121.69;4973786;28;20707;-82
2023/02/16 02:42:04;;;;;;;16.80;11.40;;;;;;;4.32;90.16;101125.69;4973033;28;20186;-81
2023/02/16 02:44:54;;;;;;;18.73;13.53;;;;;;;4.36;90.55;101120.63;4973262;28;20189;-81
2023/02/16 02:47:20;;;;;;;17.43;13.77;;;;;;;4.31;90.36;101123.25;4973169;28;20198;-81
2023/02/16 02:49:53;;;;;;;9.80;8.87;;;;;;;4.29;90.53;101123.50;4973632;28;20181;-78
2023/02/16 02:52:21;;;;;;;12.93;10.77;;;;;;;4.24;90.71;101114.53;4973303;28;20193;-77
2023/02/16 03:00:42;;;;;;;23.07;11.73;;;;;;;4.40;91.07;101119.03;4973956;28;20655;-75
2023/02/16 03:03:22;;;;;;;4.80;4.43;;;;;;;4.45;90.95;101121.78;4973169;28;20174;-74
2023/02/16 03:05:54;;;;;;;24.27;14.23;;;;;;;4.57;91.21;101121.66;4973025;28;20166;-75
2023/02/16 03:08:25;;;;;;;8.77;6.47;;;;;;;4.60;90.70;101124.66;4973168;28;20165;-74
2023/02/16 03:13:55;;;;;;;7.17;6.60;;;;;;;4.71;90.17;101131.00;4973327;28;20457;-72
2023/02/16 03:16:36;;;;;;;23.23;18.90;;;;;;;4.72;90.41;101136.16;4972929;28;20181;-73
2023/02/16 03:30:09;;;;;;;12.07;8.83;;;;;;;4.41;91.66;101150.41;4973103;28;20628;-72
2023/02/16 03:32:35;;;;;;;1.67;1.00;;;;;;;4.45;91.31;101146.13;4972555;28;20177;-73
2023/02/16 03:35:01;;;;;;;0.87;0.87;;;;;;;3.98;92.08;101149.34;4970873;28;20240;-74
2023/02/16 03:37:26;;;;;;;0.77;0.77;;;;;;;3.94;92.86;101142.00;4972384;28;20257;-73
2023/02/16 03:42:36;;;;;;;10.07;6.33;;;;;;;3.74;93.84;101140.63;4972424;28;20248;-76
2023/02/16 03:45:01;;;;;;;1.13;1.13;;;;;;;3.77;94.66;101145.56;4972656;28;20626;-78
2023/02/16 03:47:27;;;;;;;0.00;0.00;;;;;;;3.42;95.29;101153.13;4972538;28;20265;-77
2023/02/16 03:49:52;;;;;;;0.43;0.43;;;;;;;3.11;96.21;101160.72;4972489;28;20622;-79
2023/02/16 03:52:17;;;;;;;0.10;0.07;;;;;;;3.00;97.21;101150.81;4973578;28;20217;-79
2023/02/16 03:54:42;;;;;;;0.00;0.00;;;;;;;2.83;97.77;101153.50;4971903;28;20692;-78
2023/02/16 03:57:08;;;;;;;0.40;0.40;;;;;;;2.59;99.46;101147.38;4972091;28;20170;-78
2023/02/16 03:59:33;;;;;;;0.33;0.33;;;;;;;2.42;100.00;101148.38;4972049;28;20450;-77
2023/02/16 04:01:59;;;;;;;3.63;3.33;;;;;;;2.17;100.00;101160.31;4972100;28;20174;-79
2023/02/16 04:04:24;;;;;;;24.40;15.17;;;;;;;2.15;100.00;101153.50;4972016;28;20647;-78
2023/02/16 04:06:49;;;;;;;0.97;0.97;;;;;;;2.18;100.00;101153.03;4971968;28;20742;-77
2023/02/16 04:09:15;;;;;;;0.20;0.20;;;;;;;2.16;100.00;101142.47;4972098;28;20269;-78
2023/02/16 04:14:24;;;;;;;0.87;0.87;;;;;;;1.79;100.00;101142.78;4971792;28;20268;-79
2023/02/16 04:16:49;;;;;;;2.07;1.97;;;;;;;1.77;100.00;101149.47;4971880;28;20178;-77
2023/02/16 04:19:14;;;;;;;1.90;1.80;;;;;;;1.64;100.00;101139.75;4971786;28;20192;-79
2023/02/16 04:21:41;;;;;;;0.10;0.10;;;;;;;1.72;100.00;101152.84;4971899;28;20551;-79
2023/02/16 04:24:07;;;;;;;0.97;0.87;;;;;;;1.74;100.00;101155.34;4971573;28;20200;-78
2023/02/16 04:26:32;;;;;;;0.17;0.17;;;;;;;1.81;100.00;101152.50;4971604;28;20657;-76
2023/02/16 04:28:57;;;;;;;5.00;4.70;;;;;;;1.97;100.00;101149.09;4971666;28;20201;-78
2023/02/16 04:31:23;;;;;;;0.00;0.00;;;;;;;2.03;100.00;101150.84;4971852;28;20265;-79
2023/02/16 04:33:48;;;;;;;2.40;2.30;;;;;;;2.09;100.00;101147.19;4971372;28;20188;-79
2023/02/16 04:36:13;;;;;;;4.83;4.43;;;;;;;2.02;100.00;101149.19;4971492;28;20601;-79
2023/02/16 04:38:39;;;;;;;0.37;0.37;;;;;;;1.89;100.00;101144.09;4971566;28;20209;-77
2023/02/16 04:41:04;;;;;;;4.23;2.97;;;;;;;1.73;100.00;101151.78;4971610;28;20178;-77
2023/02/16 04:43:29;;;;;;;7.50;6.83;;;;;;;1.72;100.00;101146.66;4971417;28;20178;-77
2023/02/16 04:45:55;;;;;;;22.63;11.37;;;;;;;1.65;100.00;101136.00;4971291;28;20653;-80
2023/02/16 04:48:20;;;;;;;25.77;16.40;;;;;;;1.70;100.00;101133.41;4971534;28;20182;-79
2023/02/16 04:50:45;;;;;;;32.27;17.73;;;;;;;1.74;100.00;101134.59;4971426;28;20182;-77
2023/02/16 04:53:10;;;;;;;31.67;18.67;;;;;;;1.99;100.00;101118.16;4971495;28;20178;-78
2023/02/16 04:55:36;;;;;;;39.37;20.10;;;;;;;2.20;100.00;101105.09;4971592;28;20202;-79
2023/02/16 04:58:01;;;;;;;40.27;20.83;;;;;;;2.43;100.00;101098.78;4971356;28;20186;-80
2023/02/16 05:00:26;;;;;;;36.10;14.53;;;;;;;2.57;100.00;101097.44;4971379;28;20174;-79
2023/02/16 05:02:51;;;;;;;22.67;17.10;;;;;;;2.85;100.00;101100.09;4971494;28;20174;-77
2023/02/16 05:05:17;;;;;;;37.40;23.63;;;;;;;3.06;100.00;101084.25;4972775;28;20207;-81
2023/02/16 05:07:42;;;;;;;21.27;12.33;;;;;;;3.28;100.00;101091.34;4975190;28;20189;-81
2023/02/16 05:10:08;;;;;;;16.33;13.73;;;;;;;3.36;100.00;101092.81;4975183;28;20178;-82
2023/02/16 05:15:18;;;;;;;10.60;9.63;;;;;;;3.40;100.00;101088.56;4974891;28;20241;-81
2023/02/16 05:17:43;;;;;;;2.50;2.40;;;;;;;3.36;100.00;101094.69;4975000;28;20177;-82
2023/02/16 05:20:09;;;;;;;2.00;1.90;;;;;;;3.33;99.56;101093.31;4975030;28;20232;-78
2023/02/16 05:22:37;;;;;;;2.77;2.57;;;;;;;3.19;99.77;101102.81;4974972;28;20196;-78
2023/02/16 05:25:04;;;;;;;0.13;0.13;;;;;;;3.20;99.94;101104.44;4974629;28;20201;-79
2023/02/16 05:27:30;;;;;;;0.07;0.07;;;;;;;2.65;99.90;101103.25;4974875;28;20190;-80
2023/02/16 05:29:56;;;;;;;0.00;0.00;;;;;;;2.51;100.00;101114.59;4974967;28;20178;-80
2023/02/16 05:32:22;;;;;;;14.30;1.87;;;;;;;2.61;100.00;101112.09;4974827;28;20170;-79
2023/02/16 05:34:47;;;;;;;9.90;3.60;;;;;;;2.39;100.00;101118.16;4974239;28;20708;-78
2023/02/16 05:37:16;;;;;;;5.97;5.50;;;;;;;2.29;100.00;101120.63;4974714;28;20665;-78
2023/02/16 05:39:41;;;;;;;10.93;5.43;;;;;;;2.23;100.00;101112.72;4974571;28;20186;-77
2023/02/16 05:42:07;;;;;;;13.33;12.00;;;;;;;2.17;100.00;101110.94;4974624;28;20197;-82
2023/02/16 05:44:32;;;;;;;9.43;8.47;;;;;;;2.13;100.00;101113.31;4974298;28;20704;-81
2023/02/16 05:46:58;;;;;;;10.00;9.10;;;;;;;1.97;100.00;101112.19;4974423;28;20189;-80
2023/02/16 05:49:23;;;;;;;15.43;11.43;;;;;;;1.79;100.00;101110.47;4974428;28;20622;-78
2023/02/16 05:51:48;;;;;;;10.80;8.70;;;;;;;2.26;100.00;101110.34;4974411;28;20213;-80
2023/02/16 05:54:17;;;;;;;19.23;12.70;;;;;;;2.50;100.00;101110.25;4973998;28;20793;-82
2023/02/16 05:56:45;;;;;;;16.93;10.23;;;;;;;2.61;100.00;101115.59;4974367;28;20534;-79
2023/02/16 05:59:10;;;;;;;8.93;8.07;;;;;;;2.66;100.00;101109.47;4974259;28;20265;-81
2023/02/16 06:01:39;;;;;;;11.50;7.57;;;;;;;2.77;100.00;101102.38;4972998;28;20337;-80
2023/02/16 06:04:05;;;;;;;2.17;2.07;;;;;;;2.87;100.00;101107.94;4973896;28;20174;-81
2023/02/16 06:06:30;;;;;;;4.67;3.87;;;;;;;2.97;100.00;101122.44;4974050;28;20233;-82
2023/02/16 06:08:55;;;;;;;1.53;1.53;;;;;;;2.98;100.00;101112.44;4974141;28;20579;-83
2023/02/16 06:11:36;;;;;;;1.30;1.30;;;;;;;3.08;100.00;101111.81;4974141;28;20178;-80
2023/02/16 06:14:08;;;;;;;2.80;2.67;;;;;;;3.05;100.00;101117.72;4973830;28;20170;-77
2023/02/16 06:16:34;;;;;;;0.33;0.33;;;;;;;3.16;99.85;101122.19;4972839;28;20205;-81
2023/02/16 06:19:00;;;;;;;2.07;1.90;;;;;;;3.13;99.01;101111.88;4973848;28;20828;-80
2023/02/16 06:21:26;;;;;;;4.33;1.07;;;;;;;3.19;98.37;101103.63;4973875;28;20189;-77
2023/02/16 06:23:52;;;;;;;0.53;0.47;;;;;;;3.18;97.69;101110.09;4973849;28;20178;-80
2023/02/16 06:26:17;;;;;;;8.80;6.67;;;;;;;3.24;97.17;101116.38;4973971;28;20181;-79
2023/02/16 06:28:43;;;;;;;9.00;8.10;;;;;;;3.16;96.99;101119.50;4973906;28;20337;-79
2023/02/16 06:31:09;;;;;;;0.30;0.30;;;;;;;3.24;96.48;101119.91;4974039;28;20585;-80
2023/02/16 06:33:34;;;;;;;7.57;6.53;;;;;;;3.34;96.20;101116.56;4973329;28;20182;-79
2023/02/16 06:36:00;;;;;;;4.93;4.63;;;;;;;3.33;95.52;101117.63;4973404;28;20223;-78
2023/02/16 06:38:25;;;;;;;0.57;0.57;;;;;;;3.29;95.64;101108.34;4973592;28;20178;-78
2023/02/16 06:40:53;;;;;;;0.40;0.40;;;;;;;3.14;95.33;101114.34;4972464;28;20451;-81
2023/02/16 06:43:20;;;;;;;0.20;0.20;;;;;;;3.07;96.05;101120.97;4973469;28;20641;-78
2023/02/16 06:45:46;;;;;;;5.83;4.07;;;;;;;3.20;96.01;101123.34;4973265;28;20209;-80
2023/02/16 06:48:12;;;;;;;1.93;1.80;;;;;;;3.21;95.59;101127.69;4973341;28;20186;-77
2023/02/16 06:50:37;;;;;;;1.03;1.03;;;;;;;3.26;95.30;101122.34;4973404;28;20193;-81
2023/02/16 06:53:02;;;;;;;6.10;4.67;;;;;;;3.05;95.35;101128.50;4973255;28;20193;-80
2023/02/16 06:55:30;;;;;;;0.00;0.00;;;;;;;2.95;95.73;101124.56;4972957;28;20209;-79
2023/02/16 06:57:56;;;;;;;0.63;0.63;;;;;;;2.90;96.47;101121.78;4973259;28;20260;-78
2023/02/16 07:00:21;;;;;;;13.80;6.03;;;;;;;2.92;96.83;101116.97;4973256;28;20317;-79
2023/02/16 07:02:46;;;;;;;7.07;6.00;;;;;;;3.14;96.02;101124.31;4972987;28;20213;-77
2023/02/16 07:05:11;;;;;;;5.63;5.23;;;;;;;3.17;95.53;101121.13;4972791;28;20178;-78
2023/02/16 07:07:37;;;;;;;9.23;8.30;;;;;;;3.20;94.99;101126.88;4973164;28;20696;-79
2023/02/16 07:10:02;;;;;;;1.17;0.47;;;;;;;3.20;94.87;101123.34;4972986;28;20186;-81
2023/02/16 07:12:27;;;;;;;5.50;5.00;;;;;;;3.24;94.90;101136.09;4972912;28;20178;-79
2023/02/16 07:14:53;;;;;;;11.10;10.17;;;;;;;3.32;94.66;101134.88;4972649;28;20272;-78
2023/02/16 07:17:18;;;;;;;3.73;2.60;;;;;;;3.35;93.98;101125.47;4971468;28;20182;-80
2023/02/16 07:19:43;;;;;;;5.53;5.17;;;;;;;3.45;93.51;101118.31;4971445;28;20232;-80
2023/02/16 07:22:09;;;;;;;7.57;6.97;;;;;;;3.49;92.66;101122.19;4972475;28;20186;-76
2023/02/16 07:24:34;;;;;;;10.50;8.50;;;;;;;3.64;92.03;101118.06;4972423;28;20186;-80
2023/02/16 07:27:00;;;;;;;15.57;10.63;;;;;;;3.74;91.24;101120.91;4971454;28;20185;-78
2023/02/16 07:29:25;;;;;;;18.00;12.87;;;;;;;3.80;90.79;101130.72;4972342;28;20182;-79
2023/02/16 07:31:52;;;;;;;9.17;8.37;;;;;;;3.88;90.11;101130.28;4971237;28;20190;-80
2023/02/16 07:34:17;;;;;;;17.13;11.90;;;;;;;4.03;88.70;101122.38;4972096;28;20453;-78
2023/02/16 07:36:44;;;;;;;11.50;10.40;;;;;;;4.12;87.86;101128.97;4971471;28;20189;-78
2023/02/16 07:39:09;;;;;;;27.73;15.40;;;;;;;4.13;87.41;101125.22;4971227;28;20177;-78
2023/02/16 07:41:35;;;;;;;13.33;10.63;;;;;;;4.21;86.87;101123.16;4972362;28;20174;-78
2023/02/16 07:44:00;;;;;;;24.63;13.70;;;;;;;4.20;86.50;101125.03;4972221;28;20181;-80
2023/02/16 07:46:25;;;;;;;24.23;16.33;;;;;;;4.24;86.08;101123.44;4972233;28;20264;-77
2023/02/16 07:48:51;;;;;;;20.77;11.30;;;;;;;4.24;85.97;101122.63;4972219;28;20185;-80
2023/02/16 07:51:21;;;;;;;18.67;13.67;;;;;;;4.24;86.02;101119.94;4972269;28;20272;-80
2023/02/16 07:53:46;;;;;;;20.53;16.63;;;;;;;4.30;85.55;101116.19;4972093;28;20181;-80
2023/02/16 07:56:31;;;;;;;24.30;14.40;;;;;;;4.34;85.29;101112.75;4972452;28;20605;-81
2023/02/16 07:58:57;;;;;;;19.30;13.83;;;;;;;4.43;85.16;101113.94;4972119;28;20264;-80
2023/02/16 08:01:23;;;;;;;16.57;11.87;;;;;;;4.45;84.81;101114.47;4972054;28;20189;-79
2023/02/16 08:03:49;;;;;;;10.93;7.37;;;;;;;4.56;84.32;101101.06;4972157;28;20567;-81
2023/02/16 08:06:15;;;;;;;2.33;2.23;;;;;;;4.61;84.07;101117.34;4972022;28;20174;-76
2023/02/16 08:08:41;;;;;;;7.40;5.83;;;;;;;4.71;84.04;101120.16;4972002;28;20181;-77
2023/02/16 08:11:15;;;;;;;6.60;5.20;;;;;;;4.79;83.09;101119.72;4972017;28;20209;-78
2023/02/16 08:13:41;;;;;;;10.00;8.97;;;;;;;4.85;83.00;101129.50;4970599;28;20271;-77
2023/02/16 08:16:09;;;;;;;2.07;1.87;;;;;;;4.85;82.65;101131.41;4971740;28;20693;-77
2023/02/16 08:18:34;;;;;;;11.73;7.67;;;;;;;4.85;82.61;101134.91;4971916;28;20189;-76
2023/02/16 08:21:12;;;;;;;8.23;7.27;;;;;;;4.85;82.62;101139.53;4971925;28;20190;-77
2023/02/16 08:23:38;;;;;;;7.17;6.50;;;;;;;4.83;82.70;101133.56;4971560;28;20265;-78
2023/02/16 08:26:09;;;;;;;12.30;9.50;;;;;;;4.82;82.53;101137.34;4971754;28;20190;-79
2023/02/16 08:28:36;;;;;;;16.13;10.50;;;;;;;4.83;82.79;101126.25;4971707;28;20174;-76
2023/02/16 08:31:03;;;;;;;7.33;6.63;;;;;;;4.88;82.17;101137.09;4971642;28;20174;-77
2023/02/16 08:33:28;;;;;;;2.70;2.47;;;;;;;4.92;81.86;101127.44;4971816;28;20197;-77
2023/02/16 08:35:54;;;;;;;7.83;4.77;;;;;;;4.98;81.60;101118.25;4971293;28;20741;-77
2023/02/16 08:38:19;;;;;;;11.23;2.17;;;;;;;5.03;81.28;101126.41;4971655;28;20262;-78
2023/02/16 08:40:48;;;;;;;0.00;0.00;;;;;;;5.01;81.33;101131.28;4970891;28;20205;-76
2023/02/16 08:43:14;;;;;;;15.27;9.60;;;;;;;4.99;81.11;101133.44;4971609;28;20668;-78
2023/02/16 08:45:44;;;;;;;7.63;7.03;;;;;;;4.97;80.95;101130.16;4971451;28;20198;-79
2023/02/16 08:48:10;;;;;;;13.57;9.93;;;;;;;4.95;81.34;101134.22;4971611;28;20477;-78
2023/02/16 08:50:35;;;;;;;10.87;8.83;;;;;;;4.95;81.46;101135.03;4971531;28;20181;-78
2023/02/16 08:53:01;;;;;;;12.83;6.77;;;;;;;4.88;81.23;101130.88;4971505;28;20229;-77
2023/02/16 08:55:26;;;;;;;2.23;2.13;;;;;;;4.88;81.62;101133.59;4971034;28;20201;-78
2023/02/16 08:57:52;;;;;;;8.50;6.33;;;;;;;4.95;82.26;101131.50;4971401;28;20174;-79
2023/02/16 09:00:32;;;;;;;10.10;8.93;;;;;;;5.02;82.08;101123.97;4971389;28;20224;-77
2023/02/16 09:02:58;;;;;;;10.27;9.27;;;;;;;5.05;81.75;101118.03;4971410;28;20231;-78
2023/02/16 09:05:24;;;;;;;7.57;6.80;;;;;;;5.16;81.44;101122.47;4971040;28;20560;-75
2023/02/16 09:07:50;;;;;;;4.67;3.53;;;;;;;5.24;81.44;101124.72;4971320;28;20200;-77
2023/02/16 09:10:16;;;;;;;11.57;8.50;;;;;;;5.28;81.26;101111.47;4971300;28;20185;-77
2023/02/16 09:12:42;;;;;;;9.53;8.20;;;;;;;5.33;80.85;101108.78;4971375;28;20174;-78
2023/02/16 09:15:07;;;;;;;13.77;8.63;;;;;;;5.32;80.39;101102.53;4970876;28;20197;-78
2023/02/16 09:17:33;;;;;;;22.93;11.83;;;;;;;5.32;80.45;101088.19;4971268;28;20189;-78
2023/02/16 09:19:58;;;;;;;4.20;3.83;;;;;;;5.38;80.40;101090.69;4971408;28;20177;-79
2023/02/16 09:22:23;;;;;;;8.40;5.20;;;;;;;5.48;80.22;101095.31;4971597;28;20225;-76
2023/02/16 09:24:49;;;;;;;4.50;3.50;;;;;;;5.63;80.37;101095.41;4971213;28;20205;-78
2023/02/16 09:27:14;;;;;;;10.27;9.27;;;;;;;5.72;79.85;101103.06;4971186;28;20174;-78
2023/02/16 09:29:39;;;;;;;1.53;1.47;;;;;;;5.77;79.42;101106.63;4971185;28;20200;-79
2023/02/16 09:32:05;;;;;;;5.30;4.90;;;;;;;5.86;79.59;101107.75;4971161;28;20174;-78
2023/02/16 09:34:30;;;;;;;13.60;10.13;;;;;;;5.92;79.40;101108.63;4970739;28;20212;-79
2023/02/16 09:36:57;;;;;;;0.10;0.10;;;;;;;5.99;79.39;101109.22;4971559;28;20174;-77
2023/02/16 09:39:22;;;;;;;2.70;1.80;;;;;;;6.09;79.93;101124.72;4971296;28;20162;-78
2023/02/16 09:42:12;;;;;;;1.07;1.07;;;;;;;6.15;78.71;101119.03;4971061;28;20176;-79
2023/02/16 09:45:08;;;;;;;3.87;3.60;;;;;;;6.16;78.82;101115.25;4970738;28;20182;-77
2023/02/16 09:47:37;;;;;;;2.77;2.57;;;;;;;6.21;78.73;101122.56;4970920;28;20180;-78
2023/02/16 09:50:20;;;;;;;8.20;4.00;;;;;;;6.27;79.19;101126.97;4971034;28;20232;-76
2023/02/16 09:52:58;;;;;;;9.07;7.97;;;;;;;6.31;79.25;101117.19;4974449;28;20174;-78
2023/02/16 09:55:31;;;;;;;2.37;1.53;;;;;;;6.39;79.65;101116.69;4974078;28;20688;-78
2023/02/16 09:58:15;;;;;;;21.70;12.67;;;;;;;6.28;78.06;101096.03;4974251;28;20170;-78
2023/02/16 10:00:50;;;;;;;10.80;6.50;;;;;;;6.35;78.66;101109.34;4973029;28;20174;-77
2023/02/16 10:03:46;;;;;;;11.93;10.40;;;;;;;6.45;77.75;101099.31;4974270;28;20196;-77
2023/02/16 10:06:35;;;;;;;12.50;11.20;;;;;;;6.54;77.26;101122.16;4964928;28;20198;-75
2023/02/16 10:09:15;;;;;;;19.93;12.90;;;;;;;6.63;76.53;101113.47;4974205;28;20626;-75
2023/02/16 10:11:47;;;;;;;6.07;2.87;;;;;;;6.67;75.95;101122.75;4974206;28;20582;-77
2023/02/16 10:14:41;;;;;;;4.90;3.83;;;;;;;6.69;76.05;101120.56;4972385;28;20676;-77
2023/02/16 10:17:22;;;;;;;11.43;9.47;;;;;;;6.71;76.30;101119.22;4974013;28;20233;-77
2023/02/16 10:20:12;;;;;;;7.67;6.27;;;;;;;6.70;76.22;101131.16;4974295;28;20562;-74
2023/02/16 10:22:51;;;;;;;0.00;0.00;;;;;;;6.76;76.37;101129.25;4972706;28;20182;-77
2023/02/16 10:25:17;;;;;;;15.40;11.47;;;;;;;6.82;76.50;101129.00;4973725;28;20312;-78
2023/02/16 10:27:46;;;;;;;6.47;5.87;;;;;;;6.74;76.18;101126.00;4973744;28;20256;-75
2023/02/16 10:30:20;;;;;;;30.70;17.83;;;;;;;6.75;76.48;101122.19;4973776;28;20178;-77
2023/02/16 10:33:01;;;;;;;23.40;18.20;;;;;;;6.46;75.93;101128.09;4974238;28;20255;-77
2023/02/16 10:35:59;;;;;;;9.67;8.83;;;;;;;6.47;77.27;101128.91;4973039;28;20589;-79
2023/02/16 10:38:41;;;;;;;7.93;7.13;;;;;;;6.46;77.00;101121.84;4973589;28;20281;-77
2023/02/16 10:41:26;;;;;;;5.47;5.07;;;;;;;6.42;76.76;101115.34;4973728;28;20580;-77
2023/02/16 10:44:24;;;;;;;7.03;6.37;;;;;;;6.44;77.16;101110.44;4973206;28;20661;-72
2023/02/16 10:47:03;;;;;;;4.77;2.43;;;;;;;6.53;77.33;101104.25;4968688;28;20568;-73
2023/02/16 10:49:30;;;;;;;34.53;4.93;;;;;;;6.62;77.03;101107.22;4973442;28;20713;-72
2023/02/16 10:51:56;;;;;;;0.77;0.77;;;;;;;6.69;77.20;101091.50;4973357;28;20180;-73
2023/02/16 10:54:26;;;;;;;4.17;3.87;;;;;;;6.82;77.19;101092.88;4973401;28;20532;-73
2023/02/16 10:56:59;;;;;;;14.10;6.00;;;;;;;6.93;76.26;101089.06;4973403;28;20217;-73
2023/02/16 10:59:30;;;;;;;5.90;5.60;;;;;;;6.98;75.67;101089.09;4973318;28;20174;-74
2023/02/16 11:02:00;;;;;;;6.97;6.10;;;;;;;7.15;75.46;101108.66;4973081;28;20170;-72
2023/02/16 11:04:43;;;;;;;7.57;6.87;;;;;;;7.10;74.72;101096.97;4972628;28;20178;-74
2023/02/16 11:07:15;;;;;;;7.53;6.80;;;;;;;7.06;74.70;101104.84;4973106;28;20182;-79
2023/02/16 11:09:43;;;;;;;14.50;11.90;;;;;;;7.05;74.74;101105.91;4973080;28;20260;-76
2023/02/16 11:12:20;;;;;;;3.43;3.10;;;;;;;7.03;74.76;101090.97;4972990;28;20170;-77
2023/02/16 11:14:49;;;;;;;7.80;6.20;;;;;;;6.99;74.49;101092.63;4972592;28;20251;-74
2023/02/16 11:17:18;;;;;;;9.93;8.23;;;;;;;6.96;74.89;101104.03;4972957;28;20202;-75
2023/02/16 11:20:08;;;;;;;24.23;13.10;;;;;;;6.82;75.01;101107.28;4972810;28;20185;-75
2023/02/16 11:22:36;;;;;;;13.93;11.37;;;;;;;6.66;75.06;101110.25;4972832;28;20182;-76
2023/02/16 11:25:21;;;;;;;16.63;10.23;;;;;;;6.60;76.01;101114.03;4972934;28;20185;-78
2023/02/16 11:27:55;;;;;;;5.63;4.40;;;;;;;6.66;76.74;101116.50;4972681;28;20581;-75
2023/02/16 11:30:30;;;;;;;10.60;9.50;;;;;;;6.63;76.78;101119.72;4972629;28;20188;-76
2023/02/16 11:32:59;;;;;;;16.17;14.60;;;;;;;6.57;76.21;101099.09;4972631;28;20667;-77
2023/02/16 11:35:25;;;;;;;14.37;12.87;;;;;;;6.55;75.98;101101.25;4972066;28;20228;-77
2023/02/16 11:37:50;;;;;;;19.33;14.53;;;;;;;6.54;76.51;101103.16;4972877;28;20174;-78
2023/02/16 11:40:21;;;;;;;10.43;9.37;;;;;;;6.65;76.49;101086.88;4972667;28;20209;-78
2023/02/16 11:42:50;;;;;;;13.77;10.70;;;;;;;6.73;76.61;101091.78;4972493;28;20192;-77
2023/02/16 11:45:31;;;;;;;16.43;11.07;;;;;;;6.80;76.34;101087.72;4972451;28;20232;-77
2023/02/16 11:48:01;;;;;;;13.13;11.80;;;;;;;6.86;75.90;101085.81;4972729;28;20178;-77
2023/02/16 11:50:33;;;;;;;14.27;11.33;;;;;;;6.97;75.98;101089.38;4972319;28;20202;-76
2023/02/16 11:53:11;;;;;;;19.63;11.43;;;;;;;7.06;75.29;101096.69;4972292;28;20261;-74
2023/02/16 11:55:39;;;;;;;12.90;10.63;;;;;;;7.06;75.08;101085.00;4972241;28;20205;-73
2023/02/16 11:58:15;;;;;;;7.27;6.60;;;;;;;7.11;75.26;101091.28;4972495;28;20178;-70
2023/02/16 12:00:51;;;;;;;18.47;13.43;;;;;;;7.14;74.68;101085.28;4972144;28;20564;-73
2023/02/16 12:03:44;;;;;;;14.77;13.07;;;;;;;7.10;74.18;101081.50;4970787;28;20189;-70
2023/02/16 12:06:32;;;;;;;8.97;8.13;;;;;;;7.14;74.15;101084.47;4972033;28;20526;-71
2023/02/16 12:09:20;;;;;;;12.03;7.73;;;;;;;7.27;74.80;101081.19;4972031;28;20181;-72
2023/02/16 12:11:58;;;;;;;4.10;3.73;;;;;;;7.37;74.21;101086.59;4972055;28;20185;-71
2023/02/16 12:14:39;;;;;;;16.30;10.43;;;;;;;7.43;73.53;101084.72;4970767;28;20274;-71
2023/02/16 12:17:10;;;;;;;10.93;9.80;;;;;;;7.60;73.38;101079.78;4971917;28;20182;-72
2023/02/16 12:19:43;;;;;;;6.93;4.43;;;;;;;7.64;73.23;101080.84;4971794;28;20206;-73